createdAt,value
2023-01-18T00:00:01.634Z,0.00
2023-01-18T00:01:01.613Z,0.00
2023-01-18T00:02:01.651Z,0.00
2023-01-18T00:03:01.603Z,0.00
2023-01-18T00:04:01.591Z,0.00
2023-01-18T00:05:01.628Z,0.00
2023-01-18T00:06:01.575Z,0.00
2023-01-18T00:07:01.559Z,0.00
2023-01-18T00:08:01.641Z,0.00
2023-01-18T00:09:01.549Z,0.00
2023-01-18T00:10:08.108Z,0.00
2023-01-18T00:11:01.522Z,0.00
2023-01-18T00:12:01.518Z,0.00
2023-01-18T00:13:01.516Z,0.00
2023-01-18T00:14:01.505Z,0.00
2023-01-18T00:15:01.523Z,0.00
2023-01-18T00:16:01.501Z,0.00
2023-01-18T00:17:02.147Z,0.00
2023-01-18T00:18:01.464Z,0.00
2023-01-18T00:19:01.446Z,0.00
2023-01-18T00:20:01.472Z,0.00
2023-01-18T00:21:01.427Z,0.00
2023-01-18T00:22:01.421Z,0.00
2023-01-18T00:23:01.403Z,0.00
2023-01-18T00:24:01.411Z,0.00
2023-01-18T00:25:01.385Z,0.00
2023-01-18T00:26:01.500Z,0.00
2023-01-18T00:27:01.380Z,0.00
2023-01-18T00:28:01.367Z,0.00
2023-01-18T00:29:02.101Z,0.00
2023-01-18T00:30:01.406Z,0.00
2023-01-18T00:31:01.342Z,0.00
2023-01-18T00:32:01.328Z,0.00
2023-01-18T00:33:01.622Z,0.00
2023-01-18T00:34:01.306Z,0.00
2023-01-18T00:35:01.288Z,0.00
2023-01-18T00:36:01.332Z,0.00
2023-01-18T00:37:01.290Z,0.00
2023-01-18T00:38:01.275Z,0.00
2023-01-18T00:39:16.103Z,0.00
2023-01-18T00:41:32.906Z,0.00
2023-01-18T00:42:32.878Z,0.00
2023-01-18T00:44:36.847Z,0.00
2023-01-18T00:45:36.883Z,0.00
2023-01-18T00:47:40.828Z,0.00
2023-01-18T00:48:40.803Z,0.00
2023-01-18T00:50:44.836Z,0.00
2023-01-18T00:51:44.779Z,0.00
2023-01-18T00:53:48.727Z,0.00
2023-01-18T00:54:48.725Z,0.00
2023-01-18T00:56:52.747Z,0.00
2023-01-18T00:57:52.741Z,0.00
2023-01-18T00:59:56.713Z,0.00
2023-01-18T01:00:56.781Z,0.00
2023-01-18T01:03:01.026Z,0.00
2023-01-18T01:04:00.633Z,0.00
2023-01-18T01:05:53.547Z,0.00
2023-01-18T01:06:53.530Z,0.00
2023-01-18T01:08:57.547Z,0.00
2023-01-18T01:09:57.497Z,0.00
2023-01-18T01:12:01.498Z,0.00
2023-01-18T01:13:01.483Z,0.00
2023-01-18T01:15:05.507Z,0.00
2023-01-18T01:16:05.445Z,0.00
2023-01-18T01:18:09.392Z,0.00
2023-01-18T01:19:09.391Z,0.00
2023-01-18T01:21:13.405Z,0.00
2023-01-18T01:22:13.352Z,0.00
2023-01-18T01:24:17.333Z,0.00
2023-01-18T01:25:17.313Z,0.00
2023-01-18T01:27:21.560Z,0.00
2023-01-18T01:28:21.261Z,0.00
2023-01-18T01:29:21.247Z,0.00
2023-01-18T01:30:21.243Z,0.00
2023-01-18T01:31:21.232Z,0.00
2023-01-18T01:32:21.235Z,0.00
2023-01-18T01:33:21.210Z,0.00
2023-01-18T01:34:21.202Z,0.00
2023-01-18T01:35:21.194Z,0.00
2023-01-18T01:36:21.192Z,0.00
2023-01-18T01:37:21.191Z,0.00
2023-01-18T01:38:21.187Z,0.00
2023-01-18T01:39:21.164Z,0.00
2023-01-18T01:40:21.145Z,0.00
2023-01-18T01:41:21.136Z,0.00
2023-01-18T01:42:21.131Z,0.00
2023-01-18T01:43:21.139Z,0.00
2023-01-18T01:44:21.114Z,0.00
2023-01-18T01:45:21.097Z,0.00
2023-01-18T01:46:21.147Z,0.00
2023-01-18T01:47:21.087Z,0.00
2023-01-18T01:48:21.071Z,0.00
2023-01-18T01:49:21.091Z,0.00
2023-01-18T01:50:21.070Z,0.00
2023-01-18T01:51:21.066Z,0.00
2023-01-18T01:52:21.025Z,0.00
2023-01-18T01:53:21.029Z,0.00
2023-01-18T01:54:21.115Z,0.00
2023-01-18T01:55:21.010Z,0.00
2023-01-18T01:56:21.004Z,0.00
2023-01-18T01:57:20.997Z,0.00
2023-01-18T01:58:20.975Z,0.00
2023-01-18T01:59:20.965Z,0.00
2023-01-18T02:00:20.962Z,0.00
2023-01-18T02:01:21.024Z,0.00
2023-01-18T02:02:21.015Z,0.00
2023-01-18T02:03:20.941Z,0.00
2023-01-18T02:04:20.932Z,0.00
2023-01-18T02:05:20.906Z,0.00
2023-01-18T02:06:20.895Z,0.00
2023-01-18T02:07:20.892Z,0.00
2023-01-18T02:08:20.888Z,0.00
2023-01-18T02:09:20.955Z,0.00
2023-01-18T02:10:20.857Z,0.00
2023-01-18T02:11:20.848Z,0.00
2023-01-18T02:12:20.849Z,0.00
2023-01-18T02:13:20.831Z,0.00
2023-01-18T02:14:20.858Z,0.00
2023-01-18T02:15:20.819Z,0.00
2023-01-18T02:16:20.864Z,0.00
2023-01-18T02:17:20.807Z,0.00
2023-01-18T02:18:20.785Z,0.00
2023-01-18T02:19:20.772Z,0.00
2023-01-18T02:20:20.781Z,0.00
2023-01-18T02:21:20.807Z,0.00
2023-01-18T02:22:20.757Z,0.00
2023-01-18T02:23:20.735Z,0.00
2023-01-18T02:24:20.724Z,0.00
2023-01-18T02:25:20.714Z,0.00
2023-01-18T02:26:20.705Z,0.00
2023-01-18T02:27:20.699Z,0.00
2023-01-18T02:28:20.701Z,0.00
2023-01-18T02:29:20.674Z,0.00
2023-01-18T02:30:20.666Z,0.00
2023-01-18T02:31:20.661Z,0.00
2023-01-18T02:32:20.639Z,0.00
2023-01-18T02:33:20.651Z,0.00
2023-01-18T02:34:20.632Z,0.00
2023-01-18T02:35:20.615Z,0.00
2023-01-18T02:36:20.603Z,0.00
2023-01-18T02:37:20.608Z,0.00
2023-01-18T02:38:20.587Z,0.00
2023-01-18T02:39:20.576Z,0.00
2023-01-18T02:40:20.582Z,0.00
2023-01-18T02:41:20.567Z,0.00
2023-01-18T02:42:20.546Z,0.00
2023-01-18T02:43:20.560Z,0.00
2023-01-18T02:44:20.531Z,0.00
2023-01-18T02:45:20.526Z,0.00
2023-01-18T02:46:20.587Z,0.00
2023-01-18T02:47:20.521Z,0.00
2023-01-18T02:48:20.485Z,0.00
2023-01-18T02:49:20.503Z,0.00
2023-01-18T02:50:20.504Z,0.00
2023-01-18T02:51:20.462Z,0.00
2023-01-18T02:52:20.466Z,0.00
2023-01-18T02:53:20.470Z,0.00
2023-01-18T02:54:20.429Z,0.00
2023-01-18T02:55:20.428Z,0.00
2023-01-18T02:56:20.409Z,0.00
2023-01-18T02:57:20.402Z,0.00
2023-01-18T02:58:20.390Z,0.00
2023-01-18T02:59:20.405Z,0.00
2023-01-18T03:00:20.371Z,0.00
2023-01-18T03:01:20.465Z,0.00
2023-01-18T03:02:20.396Z,0.00
2023-01-18T03:03:20.352Z,0.00
2023-01-18T03:04:20.346Z,0.00
2023-01-18T03:05:20.330Z,0.00
2023-01-18T03:06:20.315Z,0.00
2023-01-18T03:07:20.321Z,0.00
2023-01-18T03:08:20.341Z,0.00
2023-01-18T03:09:20.283Z,0.00
2023-01-18T03:10:20.275Z,0.00
2023-01-18T03:11:20.283Z,0.00
2023-01-18T03:12:20.275Z,0.00
2023-01-18T03:13:20.299Z,0.00
2023-01-18T03:14:20.241Z,0.00
2023-01-18T03:15:20.280Z,0.00
2023-01-18T03:16:20.337Z,0.00
2023-01-18T03:17:20.218Z,0.00
2023-01-18T03:18:20.204Z,0.00
2023-01-18T03:19:20.194Z,0.00
2023-01-18T03:20:20.176Z,0.00
2023-01-18T03:21:20.168Z,0.00
2023-01-18T03:22:20.151Z,0.00
2023-01-18T03:23:20.176Z,0.00
2023-01-18T03:24:20.169Z,0.00
2023-01-18T03:25:20.148Z,0.00
2023-01-18T03:26:20.127Z,0.00
2023-01-18T03:27:20.116Z,0.00
2023-01-18T03:28:20.137Z,0.00
2023-01-18T03:29:20.119Z,0.00
2023-01-18T03:30:20.100Z,0.00
2023-01-18T03:31:20.157Z,0.00
2023-01-18T03:32:20.070Z,0.00
2023-01-18T03:33:20.062Z,0.00
2023-01-18T03:34:20.051Z,0.00
2023-01-18T03:35:20.047Z,0.00
2023-01-18T03:36:20.057Z,0.00
2023-01-18T03:37:20.020Z,0.00
2023-01-18T03:38:19.997Z,0.00
2023-01-18T03:39:20.007Z,0.00
2023-01-18T03:40:20.000Z,0.00
2023-01-18T03:41:19.988Z,0.00
2023-01-18T03:42:19.987Z,0.00
2023-01-18T03:43:19.975Z,0.00
2023-01-18T03:44:19.964Z,0.00
2023-01-18T03:45:19.949Z,0.00
2023-01-18T03:46:20.005Z,0.00
2023-01-18T03:47:19.941Z,0.00
2023-01-18T03:48:19.908Z,0.00
2023-01-18T03:49:19.921Z,0.00
2023-01-18T03:50:19.895Z,0.00
2023-01-18T03:51:19.934Z,0.00
2023-01-18T03:52:19.878Z,0.00
2023-01-18T03:53:19.875Z,0.00
2023-01-18T03:54:19.860Z,0.00
2023-01-18T03:55:19.844Z,0.00
2023-01-18T03:56:19.843Z,0.00
2023-01-18T03:57:19.817Z,0.00
2023-01-18T03:58:19.806Z,0.00
2023-01-18T03:59:19.851Z,0.00
2023-01-18T04:00:19.791Z,0.00
2023-01-18T04:01:19.874Z,0.00
2023-01-18T04:02:19.831Z,0.00
2023-01-18T04:03:19.794Z,0.00
2023-01-18T04:04:19.762Z,0.00
2023-01-18T04:05:19.745Z,0.00
2023-01-18T04:06:19.734Z,0.00
2023-01-18T04:07:19.733Z,0.00
2023-01-18T04:08:19.740Z,0.00
2023-01-18T04:09:19.724Z,0.00
2023-01-18T04:10:19.730Z,0.00
2023-01-18T04:11:19.684Z,0.00
2023-01-18T04:12:19.688Z,0.00
2023-01-18T04:13:19.672Z,0.00
2023-01-18T04:14:19.662Z,0.00
2023-01-18T04:15:19.659Z,0.00
2023-01-18T04:16:19.684Z,0.00
2023-01-18T04:17:19.673Z,0.00
2023-01-18T04:18:19.619Z,0.00
2023-01-18T04:19:19.630Z,0.00
2023-01-18T04:20:19.611Z,0.00
2023-01-18T04:21:19.615Z,0.00
2023-01-18T04:22:19.582Z,0.00
2023-01-18T04:23:19.567Z,0.00
2023-01-18T04:24:19.569Z,0.00
2023-01-18T04:25:19.562Z,0.00
2023-01-18T04:26:19.556Z,0.00
2023-01-18T04:27:19.546Z,0.00
2023-01-18T04:28:19.536Z,0.00
2023-01-18T04:29:19.507Z,0.00
2023-01-18T04:30:19.523Z,0.00
2023-01-18T04:31:19.519Z,0.00
2023-01-18T04:32:19.503Z,0.00
2023-01-18T04:33:19.480Z,0.00
2023-01-18T04:34:19.469Z,0.00
2023-01-18T04:35:19.467Z,0.00
2023-01-18T04:36:19.450Z,0.00
2023-01-18T04:37:19.439Z,0.00
2023-01-18T04:38:19.440Z,0.00
2023-01-18T04:39:19.447Z,0.00
2023-01-18T04:40:19.419Z,0.00
2023-01-18T04:41:19.419Z,0.00
2023-01-18T04:42:19.395Z,0.00
2023-01-18T04:43:19.381Z,0.00
2023-01-18T04:44:19.394Z,0.00
2023-01-18T04:45:19.361Z,0.00
2023-01-18T04:46:19.424Z,0.00
2023-01-18T04:47:19.347Z,0.00
2023-01-18T04:48:19.347Z,0.00
2023-01-18T04:49:19.328Z,0.00
2023-01-18T04:50:19.316Z,0.00
2023-01-18T04:51:19.360Z,0.00
2023-01-18T04:52:19.432Z,0.00
2023-01-18T04:53:19.292Z,0.00
2023-01-18T04:54:19.308Z,0.00
2023-01-18T04:55:19.279Z,0.00
2023-01-18T04:56:19.260Z,0.00
2023-01-18T04:57:19.268Z,0.00
2023-01-18T04:58:19.252Z,0.00
2023-01-18T04:59:19.261Z,0.00
2023-01-18T05:00:19.243Z,0.00
2023-01-18T05:01:19.286Z,0.00
2023-01-18T05:02:19.288Z,0.00
2023-01-18T05:03:19.194Z,0.00
2023-01-18T05:04:19.185Z,0.00
2023-01-18T05:05:19.207Z,0.00
2023-01-18T05:06:19.234Z,0.00
2023-01-18T05:07:19.167Z,0.00
2023-01-18T05:08:19.157Z,0.00
2023-01-18T05:09:19.139Z,0.00
2023-01-18T05:10:19.129Z,0.00
2023-01-18T05:11:19.128Z,0.00
2023-01-18T05:12:19.134Z,0.00
2023-01-18T05:13:19.099Z,0.00
2023-01-18T05:14:19.090Z,0.00
2023-01-18T05:15:19.072Z,0.00
2023-01-18T05:16:19.252Z,0.00
2023-01-18T05:17:19.058Z,0.00
2023-01-18T05:18:19.099Z,0.00
2023-01-18T05:19:19.039Z,0.00
2023-01-18T05:20:19.075Z,0.00
2023-01-18T05:21:19.076Z,0.00
2023-01-18T05:22:19.021Z,0.00
2023-01-18T05:23:19.021Z,0.00
2023-01-18T05:24:19.002Z,0.00
2023-01-18T05:25:19.000Z,0.00
2023-01-18T05:26:19.049Z,0.00
2023-01-18T05:27:18.968Z,0.00
2023-01-18T05:28:18.973Z,0.00
2023-01-18T05:29:18.957Z,0.00
2023-01-18T05:30:18.945Z,0.00
2023-01-18T05:31:18.994Z,0.00
2023-01-18T05:32:18.922Z,0.00
2023-01-18T05:33:18.916Z,0.00
2023-01-18T05:34:18.908Z,0.00
2023-01-18T05:35:18.884Z,0.00
2023-01-18T05:36:18.883Z,0.00
2023-01-18T05:37:18.877Z,0.00
2023-01-18T05:38:18.878Z,0.00
2023-01-18T05:39:18.875Z,0.00
2023-01-18T05:40:18.866Z,0.00
2023-01-18T05:41:18.844Z,0.00
2023-01-18T05:42:18.847Z,0.00
2023-01-18T05:43:18.850Z,0.00
2023-01-18T05:44:18.825Z,0.00
2023-01-18T05:45:18.801Z,0.00
2023-01-18T05:46:18.788Z,0.00
2023-01-18T05:47:18.800Z,0.00
2023-01-18T05:48:18.777Z,0.00
2023-01-18T05:49:18.778Z,0.00
2023-01-18T05:50:18.771Z,0.00
2023-01-18T05:51:18.763Z,0.00
2023-01-18T05:52:18.738Z,0.00
2023-01-18T05:53:18.747Z,0.00
2023-01-18T05:54:18.723Z,0.00
2023-01-18T05:55:18.742Z,0.00
2023-01-18T05:56:18.743Z,0.00
2023-01-18T05:57:18.697Z,0.00
2023-01-18T05:58:18.680Z,0.00
2023-01-18T05:59:18.682Z,0.00
2023-01-18T06:00:18.675Z,0.00
2023-01-18T06:01:18.690Z,0.00
2023-01-18T06:02:18.678Z,0.00
2023-01-18T06:03:18.652Z,0.00
2023-01-18T06:04:18.679Z,0.00
2023-01-18T06:05:18.624Z,0.00
2023-01-18T06:06:18.612Z,0.00
2023-01-18T06:07:18.620Z,0.00
2023-01-18T06:08:18.609Z,0.00
2023-01-18T06:09:18.588Z,0.00
2023-01-18T06:10:18.600Z,0.00
2023-01-18T06:11:18.564Z,0.00
2023-01-18T06:12:18.565Z,0.00
2023-01-18T06:13:18.549Z,0.00
2023-01-18T06:14:18.550Z,0.00
2023-01-18T06:15:18.529Z,0.00
2023-01-18T06:16:18.546Z,0.00
2023-01-18T06:17:18.508Z,0.00
2023-01-18T06:18:18.512Z,0.00
2023-01-18T06:19:18.486Z,0.00
2023-01-18T06:20:18.492Z,0.00
2023-01-18T06:21:18.499Z,0.00
2023-01-18T06:22:18.478Z,0.00
2023-01-18T06:23:18.526Z,0.00
2023-01-18T06:24:18.458Z,0.00
2023-01-18T06:25:18.450Z,0.00
2023-01-18T06:26:18.448Z,0.00
2023-01-18T06:27:18.447Z,0.00
2023-01-18T06:28:18.426Z,0.00
2023-01-18T06:29:18.406Z,0.00
2023-01-18T06:30:18.429Z,0.00
2023-01-18T06:31:18.450Z,0.00
2023-01-18T06:32:18.390Z,0.00
2023-01-18T06:33:18.379Z,0.00
2023-01-18T06:34:18.396Z,0.00
2023-01-18T06:35:18.397Z,0.00
2023-01-18T06:36:18.355Z,0.00
2023-01-18T06:37:18.331Z,4.00
2023-01-18T06:38:18.327Z,4.00
2023-01-18T06:39:18.312Z,4.00
2023-01-18T06:40:18.325Z,4.00
2023-01-18T06:41:18.356Z,0.00
2023-01-18T06:42:18.303Z,0.00
2023-01-18T06:43:18.329Z,4.00
2023-01-18T06:44:18.280Z,4.00
2023-01-18T06:45:18.268Z,8.00
2023-01-18T06:46:18.320Z,4.00
2023-01-18T06:47:18.257Z,4.00
2023-01-18T06:48:18.263Z,4.00
2023-01-18T06:49:18.247Z,8.00
2023-01-18T06:50:18.286Z,4.00
2023-01-18T06:51:18.229Z,8.00
2023-01-18T06:52:18.232Z,8.00
2023-01-18T06:53:18.202Z,8.00
2023-01-18T06:54:18.235Z,8.00
2023-01-18T06:55:18.178Z,12.00
2023-01-18T06:56:18.175Z,8.00
2023-01-18T06:57:18.156Z,12.00
2023-01-18T06:58:18.153Z,12.00
2023-01-18T06:59:18.165Z,12.00
2023-01-18T07:00:18.170Z,12.00
2023-01-18T07:01:18.200Z,12.00
2023-01-18T07:02:18.115Z,16.00
2023-01-18T07:03:18.093Z,16.00
2023-01-18T07:04:18.150Z,12.00
2023-01-18T07:05:18.091Z,16.00
2023-01-18T07:06:18.105Z,16.00
2023-01-18T07:07:18.091Z,16.00
2023-01-18T07:08:18.080Z,20.00
2023-01-18T07:09:18.045Z,20.00
2023-01-18T07:10:18.066Z,20.00
2023-01-18T07:11:18.037Z,24.00
2023-01-18T07:12:18.020Z,28.00
2023-01-18T07:13:18.027Z,28.00
2023-01-18T07:14:18.012Z,28.00
2023-01-18T07:15:22.585Z,36.00
2023-01-18T07:16:18.243Z,36.00
2023-01-18T07:17:17.993Z,36.00
2023-01-18T07:18:17.984Z,44.00
2023-01-18T07:19:18.014Z,44.00
2023-01-18T07:20:17.961Z,48.00
2023-01-18T07:21:17.936Z,52.00
2023-01-18T07:22:18.062Z,56.00
2023-01-18T07:23:17.927Z,60.00
2023-01-18T07:24:17.944Z,60.00
2023-01-18T07:25:17.946Z,64.00
2023-01-18T07:26:17.946Z,64.00
2023-01-18T07:27:17.918Z,72.00
2023-01-18T07:28:17.898Z,72.00
2023-01-18T07:29:17.881Z,76.00
2023-01-18T07:30:17.864Z,76.00
2023-01-18T07:31:17.889Z,80.00
2023-01-18T07:32:17.849Z,84.00
2023-01-18T07:33:17.858Z,88.00
2023-01-18T07:34:17.839Z,96.00
2023-01-18T07:35:17.841Z,104.00
2023-01-18T07:36:17.809Z,108.00
2023-01-18T07:37:17.808Z,120.00
2023-01-18T07:38:17.789Z,132.00
2023-01-18T07:39:17.776Z,140.00
2023-01-18T07:40:17.773Z,148.00
2023-01-18T07:41:17.795Z,160.00
2023-01-18T07:42:17.754Z,172.00
2023-01-18T07:43:17.759Z,176.00
2023-01-18T07:44:17.746Z,188.00
2023-01-18T07:45:17.747Z,200.00
2023-01-18T07:46:17.817Z,208.00
2023-01-18T07:47:17.711Z,216.00
2023-01-18T07:48:17.699Z,232.00
2023-01-18T07:49:17.696Z,240.00
2023-01-18T07:50:17.755Z,260.00
2023-01-18T07:51:17.692Z,276.00
2023-01-18T07:52:17.778Z,296.00
2023-01-18T07:53:17.678Z,308.00
2023-01-18T07:54:17.648Z,324.00
2023-01-18T07:55:17.716Z,340.00
2023-01-18T07:56:17.648Z,360.00
2023-01-18T07:57:17.629Z,384.00
2023-01-18T07:58:17.610Z,400.00
2023-01-18T07:59:17.640Z,420.00
2023-01-18T08:00:17.609Z,440.00
2023-01-18T08:01:17.724Z,460.00
2023-01-18T08:02:17.721Z,476.00
2023-01-18T08:03:17.626Z,500.00
2023-01-18T08:04:17.563Z,524.00
2023-01-18T08:05:17.544Z,548.00
2023-01-18T08:06:17.554Z,580.00
2023-01-18T08:07:17.551Z,628.00
2023-01-18T08:08:17.541Z,688.00
2023-01-18T08:09:17.524Z,740.00
2023-01-18T08:10:17.535Z,800.00
2023-01-18T08:11:17.514Z,852.00
2023-01-18T08:12:17.573Z,892.00
2023-01-18T08:13:17.488Z,924.00
2023-01-18T08:14:17.546Z,956.00
2023-01-18T08:15:17.509Z,976.00
2023-01-18T08:16:17.462Z,992.00
2023-01-18T08:17:17.457Z,1004.00
2023-01-18T08:18:17.458Z,1008.00
2023-01-18T08:19:17.432Z,996.00
2023-01-18T08:20:17.443Z,980.00
2023-01-18T08:21:17.413Z,952.00
2023-01-18T08:22:17.412Z,924.00
2023-01-18T08:23:17.412Z,908.00
2023-01-18T08:24:17.392Z,896.00
2023-01-18T08:25:17.403Z,892.00
2023-01-18T08:26:17.422Z,892.00
2023-01-18T08:27:17.413Z,892.00
2023-01-18T08:28:17.409Z,892.00
2023-01-18T08:29:17.371Z,880.00
2023-01-18T08:30:17.355Z,864.00
2023-01-18T08:31:17.396Z,840.00
2023-01-18T08:32:17.331Z,820.00
2023-01-18T08:33:17.413Z,804.00
2023-01-18T08:34:17.343Z,792.00
2023-01-18T08:35:17.324Z,788.00
2023-01-18T08:36:17.330Z,800.00
2023-01-18T08:37:17.279Z,812.00
2023-01-18T08:38:17.303Z,832.00
2023-01-18T08:39:17.267Z,860.00
2023-01-18T08:40:17.263Z,888.00
2023-01-18T08:41:17.247Z,920.00
2023-01-18T08:42:17.302Z,952.00
2023-01-18T08:43:17.269Z,980.00
2023-01-18T08:44:17.211Z,1004.00
2023-01-18T08:45:17.195Z,1020.00
2023-01-18T08:46:17.316Z,1028.00
2023-01-18T08:47:17.202Z,1016.00
2023-01-18T08:48:17.185Z,1004.00
2023-01-18T08:49:17.165Z,976.00
2023-01-18T08:50:17.200Z,952.00
2023-01-18T08:51:17.236Z,932.00
2023-01-18T08:52:17.165Z,916.00
2023-01-18T08:53:17.122Z,908.00
2023-01-18T08:54:17.148Z,908.00
2023-01-18T08:55:17.142Z,912.00
2023-01-18T08:56:17.174Z,916.00
2023-01-18T08:57:17.115Z,916.00
2023-01-18T08:58:17.099Z,912.00
2023-01-18T08:59:17.803Z,900.00
2023-01-18T09:00:17.092Z,892.00
2023-01-18T09:01:17.220Z,892.00
2023-01-18T09:02:17.077Z,904.00
2023-01-18T09:03:17.060Z,920.00
2023-01-18T09:04:17.081Z,944.00
2023-01-18T09:05:17.091Z,964.00
2023-01-18T09:06:17.094Z,988.00
2023-01-18T09:07:17.005Z,1000.00
2023-01-18T09:08:17.008Z,1000.00
2023-01-18T09:09:17.034Z,996.00
2023-01-18T09:10:16.987Z,988.00
2023-01-18T09:11:16.995Z,972.00
2023-01-18T09:12:16.960Z,956.00
2023-01-18T09:13:16.951Z,944.00
2023-01-18T09:14:16.948Z,940.00
2023-01-18T09:15:16.944Z,952.00
2023-01-18T09:16:17.069Z,980.00
2023-01-18T09:17:16.961Z,1024.00
2023-01-18T09:18:16.952Z,1092.00
2023-01-18T09:19:16.920Z,1172.00
2023-01-18T09:20:18.907Z,1244.00
2023-01-18T09:21:16.903Z,1276.00
2023-01-18T09:22:16.940Z,1276.00
2023-01-18T09:23:16.897Z,1276.00
2023-01-18T09:24:16.875Z,1300.00
2023-01-18T09:25:16.853Z,1348.00
2023-01-18T09:26:16.862Z,1408.00
2023-01-18T09:27:16.829Z,1480.00
2023-01-18T09:28:16.845Z,1560.00
2023-01-18T09:29:16.822Z,1676.00
2023-01-18T09:30:16.807Z,1820.00
2023-01-18T09:31:16.935Z,1988.00
2023-01-18T09:32:16.801Z,2156.00
2023-01-18T09:33:16.791Z,2328.00
2023-01-18T09:34:19.685Z,2500.00
2023-01-18T09:35:16.768Z,2652.00
2023-01-18T09:36:16.771Z,2768.00
2023-01-18T09:37:16.798Z,2836.00
2023-01-18T09:38:16.759Z,2864.00
2023-01-18T09:39:16.730Z,2856.00
2023-01-18T09:40:16.718Z,2808.00
2023-01-18T09:41:16.755Z,2744.00
2023-01-18T09:42:16.709Z,2672.00
2023-01-18T09:43:16.724Z,2596.00
2023-01-18T09:44:16.800Z,2536.00
2023-01-18T09:45:16.679Z,2488.00
2023-01-18T09:46:16.727Z,2456.00
2023-01-18T09:47:16.757Z,2428.00
2023-01-18T09:48:16.680Z,2412.00
2023-01-18T09:49:16.678Z,2408.00
2023-01-18T09:50:16.644Z,2400.00
2023-01-18T09:51:16.701Z,2392.00
2023-01-18T09:52:16.622Z,2376.00
2023-01-18T09:53:16.651Z,2368.00
2023-01-18T09:54:16.615Z,2372.00
2023-01-18T09:55:16.642Z,2364.00
2023-01-18T09:56:16.606Z,2360.00
2023-01-18T09:57:16.584Z,2344.00
2023-01-18T09:58:16.603Z,2324.00
2023-01-18T09:59:16.562Z,2292.00
2023-01-18T10:00:16.587Z,2268.00
2023-01-18T10:01:16.613Z,2252.00
2023-01-18T10:02:16.682Z,2244.00
2023-01-18T10:03:16.551Z,2228.00
2023-01-18T10:04:16.547Z,2216.00
2023-01-18T10:05:16.526Z,2192.00
2023-01-18T10:06:16.526Z,2184.00
2023-01-18T10:07:16.529Z,2172.00
2023-01-18T10:08:16.501Z,2168.00
2023-01-18T10:09:16.506Z,2168.00
2023-01-18T10:10:16.504Z,2168.00
2023-01-18T10:11:16.507Z,2164.00
2023-01-18T10:12:16.460Z,2160.00
2023-01-18T10:13:16.444Z,2172.00
2023-01-18T10:14:16.441Z,2176.00
2023-01-18T10:15:16.540Z,2180.00
2023-01-18T10:16:16.466Z,2184.00
2023-01-18T10:17:16.440Z,2192.00
2023-01-18T10:18:16.405Z,2196.00
2023-01-18T10:19:16.403Z,2204.00
2023-01-18T10:20:16.452Z,2196.00
2023-01-18T10:21:16.389Z,2188.00
2023-01-18T10:22:18.669Z,2176.00
2023-01-18T10:23:16.386Z,2164.00
2023-01-18T10:24:16.368Z,2140.00
2023-01-18T10:25:16.357Z,2116.00
2023-01-18T10:26:16.343Z,2076.00
2023-01-18T10:27:16.417Z,2036.00
2023-01-18T10:28:16.344Z,1992.00
2023-01-18T10:29:16.340Z,1940.00
2023-01-18T10:30:16.348Z,1892.00
2023-01-18T10:31:16.429Z,1836.00
2023-01-18T10:32:16.302Z,1792.00
2023-01-18T10:33:16.313Z,1752.00
2023-01-18T10:34:16.312Z,1712.00
2023-01-18T10:35:16.275Z,1672.00
2023-01-18T10:36:16.270Z,1636.00
2023-01-18T10:37:16.248Z,1600.00
2023-01-18T10:38:16.262Z,1572.00
2023-01-18T10:39:16.296Z,1532.00
2023-01-18T10:40:16.258Z,1488.00
2023-01-18T10:41:16.265Z,1432.00
2023-01-18T10:42:16.245Z,1388.00
2023-01-18T10:43:16.220Z,1352.00
2023-01-18T10:44:16.223Z,1336.00
2023-01-18T10:45:16.200Z,1324.00
2023-01-18T10:46:16.257Z,1324.00
2023-01-18T10:47:17.674Z,1320.00
2023-01-18T10:48:16.186Z,1316.00
2023-01-18T10:49:16.172Z,1312.00
2023-01-18T10:50:16.185Z,1308.00
2023-01-18T10:51:16.168Z,1296.00
2023-01-18T10:52:16.130Z,1268.00
2023-01-18T10:53:16.140Z,1244.00
2023-01-18T10:54:16.119Z,1224.00
2023-01-18T10:55:16.112Z,1212.00
2023-01-18T10:56:16.112Z,1200.00
2023-01-18T10:57:16.111Z,1200.00
2023-01-18T10:58:16.098Z,1200.00
2023-01-18T10:59:16.089Z,1192.00
2023-01-18T11:00:16.184Z,1188.00
2023-01-18T11:01:17.048Z,1188.00
2023-01-18T11:02:16.085Z,1188.00
2023-01-18T11:03:16.072Z,1184.00
2023-01-18T11:04:16.069Z,1188.00
2023-01-18T11:05:16.066Z,1196.00
2023-01-18T11:06:16.032Z,1208.00
2023-01-18T11:07:16.039Z,1224.00
2023-01-18T11:08:16.017Z,1236.00
2023-01-18T11:09:16.012Z,1252.00
2023-01-18T11:10:16.001Z,1268.00
2023-01-18T11:11:16.003Z,1284.00
2023-01-18T11:12:15.973Z,1292.00
2023-01-18T11:13:16.005Z,1308.00
2023-01-18T11:14:15.968Z,1320.00
2023-01-18T11:15:16.000Z,1336.00
2023-01-18T11:16:16.160Z,1352.00
2023-01-18T11:17:15.983Z,1376.00
2023-01-18T11:18:17.695Z,1396.00
2023-01-18T11:19:15.948Z,1420.00
2023-01-18T11:20:15.927Z,1436.00
2023-01-18T11:21:15.915Z,1444.00
2023-01-18T11:22:15.928Z,1452.00
2023-01-18T11:23:15.893Z,1448.00
2023-01-18T11:24:15.883Z,1440.00
2023-01-18T11:25:15.935Z,1428.00
2023-01-18T11:26:15.882Z,1412.00
2023-01-18T11:27:15.997Z,1396.00
2023-01-18T11:28:15.867Z,1376.00
2023-01-18T11:29:15.856Z,1360.00
2023-01-18T11:30:15.838Z,1344.00
2023-01-18T11:31:15.949Z,1328.00
2023-01-18T11:32:15.880Z,1308.00
2023-01-18T11:33:15.833Z,1296.00
2023-01-18T11:34:15.812Z,1284.00
2023-01-18T11:35:15.821Z,1272.00
2023-01-18T11:36:15.816Z,1268.00
2023-01-18T11:37:15.780Z,1264.00
2023-01-18T11:38:15.828Z,1260.00
2023-01-18T11:39:15.828Z,1260.00
2023-01-18T11:40:15.764Z,1264.00
2023-01-18T11:41:15.777Z,1268.00
2023-01-18T11:42:15.755Z,1272.00
2023-01-18T11:43:15.755Z,1272.00
2023-01-18T11:44:15.727Z,1280.00
2023-01-18T11:45:15.731Z,1280.00
2023-01-18T11:46:15.782Z,1280.00
2023-01-18T11:47:15.704Z,1284.00
2023-01-18T11:48:15.735Z,1280.00
2023-01-18T11:49:15.697Z,1272.00
2023-01-18T11:50:22.244Z,1260.00
2023-01-18T11:51:15.674Z,1248.00
2023-01-18T11:52:15.677Z,1232.00
2023-01-18T11:53:15.684Z,1212.00
2023-01-18T11:54:15.693Z,1196.00
2023-01-18T11:55:15.690Z,1176.00
2023-01-18T11:56:15.665Z,1160.00
2023-01-18T11:57:15.623Z,1140.00
2023-01-18T11:58:15.649Z,1120.00
2023-01-18T11:59:15.668Z,1100.00
2023-01-18T12:00:15.619Z,1080.00
2023-01-18T12:01:15.623Z,1068.00
2023-01-18T12:02:15.618Z,1052.00
2023-01-18T12:03:15.623Z,1036.00
2023-01-18T12:04:15.575Z,1020.00
2023-01-18T12:05:15.587Z,1012.00
2023-01-18T12:06:15.597Z,1000.00
2023-01-18T12:07:15.562Z,988.00
2023-01-18T12:08:15.566Z,980.00
2023-01-18T12:09:15.573Z,968.00
2023-01-18T12:10:15.538Z,956.00
2023-01-18T12:11:15.541Z,952.00
2023-01-18T12:12:19.272Z,940.00
2023-01-18T12:13:15.504Z,928.00
2023-01-18T12:14:15.563Z,920.00
2023-01-18T12:15:15.494Z,912.00
2023-01-18T12:16:15.582Z,896.00
2023-01-18T12:17:15.492Z,880.00
2023-01-18T12:18:15.783Z,872.00
2023-01-18T12:19:15.550Z,852.00
2023-01-18T12:20:15.500Z,840.00
2023-01-18T12:21:15.460Z,832.00
2023-01-18T12:22:15.456Z,820.00
2023-01-18T12:23:15.437Z,812.00
2023-01-18T12:24:15.457Z,808.00
2023-01-18T12:25:15.415Z,804.00
2023-01-18T12:26:15.411Z,804.00
2023-01-18T12:27:15.427Z,804.00
2023-01-18T12:28:15.399Z,812.00
2023-01-18T12:29:15.407Z,820.00
2023-01-18T12:30:15.395Z,828.00
2023-01-18T12:31:15.374Z,836.00
2023-01-18T12:32:15.417Z,852.00
2023-01-18T12:33:15.375Z,864.00
2023-01-18T12:34:15.344Z,872.00
2023-01-18T12:35:23.700Z,884.00
2023-01-18T12:36:15.346Z,896.00
2023-01-18T12:37:15.347Z,900.00
2023-01-18T12:38:15.340Z,908.00
2023-01-18T12:39:15.324Z,912.00
2023-01-18T12:40:15.296Z,908.00
2023-01-18T12:41:15.359Z,904.00
2023-01-18T12:42:15.310Z,904.00
2023-01-18T12:43:15.285Z,896.00
2023-01-18T12:44:15.289Z,888.00
2023-01-18T12:45:15.349Z,880.00
2023-01-18T12:46:15.287Z,868.00
2023-01-18T12:47:15.295Z,856.00
2023-01-18T12:48:15.263Z,840.00
2023-01-18T12:49:15.252Z,824.00
2023-01-18T12:50:15.205Z,804.00
2023-01-18T12:51:15.227Z,784.00
2023-01-18T12:52:19.039Z,768.00
2023-01-18T12:53:15.213Z,748.00
2023-01-18T12:54:15.317Z,724.00
2023-01-18T12:55:15.351Z,708.00
2023-01-18T12:56:15.178Z,692.00
2023-01-18T12:57:15.153Z,676.00
2023-01-18T12:58:15.147Z,664.00
2023-01-18T12:59:15.257Z,648.00
2023-01-18T13:00:15.206Z,636.00
2023-01-18T13:01:15.251Z,632.00
2023-01-18T13:02:15.153Z,624.00
2023-01-18T13:03:15.136Z,620.00
2023-01-18T13:04:15.142Z,612.00
2023-01-18T13:05:15.115Z,604.00
2023-01-18T13:06:15.097Z,600.00